Time;durP1;ratioP1;P1;durP2;ratioP2;P2;SDS_P1;SDS_P2;PMS_P1;PMS_P2;Temp;Humidity;BMP_temperature;BMP_pressure;BME280_temperature;BME280_humidity;BME280_pressure;Samples;Min_cycle;Max_cycle;Signal;HPM_P1;HPM_P2
2023/09/20 00:01:51;;;;;;;4.32;2.28;;;13.90;99.90;;;;;;5074845;28;20213;-84
2023/09/20 00:04:16;;;;;;;3.00;2.22;;;13.80;99.90;;;;;;5075306;28;20529;-84
2023/09/20 00:06:42;;;;;;;3.38;2.30;;;13.80;99.90;;;;;;5075054;28;20227;-84
2023/09/20 00:09:08;;;;;;;3.75;2.25;;;13.80;99.90;;;;;;5075645;28;20201;-84
2023/09/20 00:11:35;;;;;;;2.78;1.90;;;13.80;99.90;;;;;;5075238;28;20181;-84
2023/09/20 00:14:00;;;;;;;3.75;2.28;;;13.80;99.90;;;;;;5074808;28;20185;-84
2023/09/20 00:16:28;;;;;;;2.20;2.00;;;13.70;99.90;;;;;;5075696;28;20188;-84
2023/09/20 00:18:54;;;;;;;4.82;2.15;;;13.60;99.90;;;;;;5074629;28;20198;-84
2023/09/20 00:21:20;;;;;;;3.95;2.20;;;13.60;99.90;;;;;;5074893;28;20185;-84
2023/09/20 00:23:46;;;;;;;4.07;2.05;;;13.50;99.90;;;;;;5075259;28;20181;-84
2023/09/20 00:26:13;;;;;;;3.75;2.30;;;13.40;99.90;;;;;;5074982;28;20623;-84
2023/09/20 00:28:39;;;;;;;3.85;2.40;;;13.40;99.90;;;;;;5074846;28;20194;-84
2023/09/20 00:31:05;;;;;;;3.08;2.30;;;13.40;99.90;;;;;;5074762;28;20181;-84
2023/09/20 00:33:31;;;;;;;2.33;2.13;;;13.30;99.90;;;;;;5075224;28;20174;-84
2023/09/20 00:35:57;;;;;;;2.25;2.05;;;13.30;99.90;;;;;;5074616;28;20168;-84
2023/09/20 00:38:24;;;;;;;2.78;2.20;;;13.30;99.90;;;;;;5074483;28;20194;-84
2023/09/20 00:40:50;;;;;;;4.07;2.40;;;13.30;99.90;;;;;;5074626;28;20178;-84
2023/09/20 00:43:22;;;;;;;3.78;2.17;;;13.20;99.90;;;;;;5074976;28;20205;-84
2023/09/20 00:45:48;;;;;;;2.22;1.95;;;13.20;99.90;;;;;;5074089;28;20166;-84
2023/09/20 00:48:15;;;;;;;3.05;2.20;;;13.20;99.90;;;;;;5074224;28;20198;-84
2023/09/20 00:50:42;;;;;;;2.20;2.00;;;13.20;99.90;;;;;;5074495;28;20177;-84
2023/09/20 00:53:11;;;;;;;2.30;2.10;;;13.10;99.90;;;;;;5074421;28;20181;-84
2023/09/20 00:55:37;;;;;;;2.78;2.22;;;13.10;99.90;;;;;;5074989;28;20185;-84
2023/09/20 00:58:17;;;;;;;2.80;2.20;;;13.10;99.90;;;;;;5074226;28;20181;-84
2023/09/20 01:38:52;;;;;;;2.22;2.00;;;13.50;99.90;;;;;;4860354;29;20196;-73
2023/09/20 01:48:47;;;;;;;2.70;2.10;;;13.40;99.90;;;;;;4897053;29;20621;-72
2023/09/20 01:57:53;;;;;;;6.97;2.35;;;13.40;99.90;;;;;;5000102;23;20705;-86
2023/09/20 02:00:22;;;;;;;2.65;2.20;;;13.40;99.90;;;;;;4954898;29;20666;-86
2023/09/20 02:02:55;;;;;;;2.60;2.40;;;13.30;99.90;;;;;;4955960;29;20225;-86
2023/09/20 02:05:23;;;;;;;2.97;2.17;;;13.30;99.90;;;;;;4955333;29;20551;-86
2023/09/20 02:07:51;;;;;;;4.10;2.25;;;13.30;99.90;;;;;;4954771;29;20272;-86
2023/09/20 02:10:17;;;;;;;3.70;2.35;;;13.20;99.90;;;;;;4954747;29;20177;-86
2023/09/20 02:12:47;;;;;;;2.72;2.10;;;13.20;99.90;;;;;;4955330;29;20213;-86
2023/09/20 02:15:17;;;;;;;2.35;2.15;;;13.10;99.90;;;;;;4954907;29;20186;-86
2023/09/20 02:17:43;;;;;;;3.75;2.22;;;13.10;99.90;;;;;;4954593;29;20170;-86
2023/09/20 02:20:10;;;;;;;3.28;2.35;;;13.10;99.90;;;;;;4954658;28;20559;-86
2023/09/20 02:22:37;;;;;;;2.55;2.17;;;13.10;99.90;;;;;;4954615;29;20232;-86
2023/09/20 02:25:10;;;;;;;2.63;2.22;;;13.10;99.90;;;;;;4954522;29;20178;-87
2023/09/20 02:27:36;;;;;;;2.22;2.03;;;13.10;99.90;;;;;;4954512;29;20174;-86
2023/09/20 02:30:03;;;;;;;2.40;2.20;;;13.10;99.90;;;;;;4954455;28;20248;-86
2023/09/20 02:32:30;;;;;;;3.78;2.25;;;13.10;99.90;;;;;;4954362;29;20192;-86
2023/09/20 02:34:56;;;;;;;2.05;1.92;;;13.20;99.90;;;;;;4955233;29;20177;-86
2023/09/20 02:37:22;;;;;;;3.03;2.17;;;13.20;99.90;;;;;;4954504;29;20258;-86
2023/09/20 02:39:48;;;;;;;3.35;2.20;;;13.20;99.90;;;;;;4954457;28;20201;-86
2023/09/20 02:42:14;;;;;;;3.92;2.30;;;13.10;99.90;;;;;;4954947;29;20324;-86
2023/09/20 02:44:40;;;;;;;2.55;2.10;;;13.10;99.90;;;;;;4954208;29;20656;-86
2023/09/20 02:47:06;;;;;;;2.78;2.25;;;13.10;99.90;;;;;;4954123;29;20180;-86
2023/09/20 02:49:34;;;;;;;2.85;2.33;;;13.10;99.90;;;;;;4954501;28;20197;-86
2023/09/20 02:51:59;;;;;;;2.65;2.00;;;13.20;99.90;;;;;;4954122;29;20209;-86
2023/09/20 02:54:25;;;;;;;3.00;2.15;;;13.10;99.90;;;;;;4954101;29;20186;-86
2023/09/20 02:56:55;;;;;;;2.55;1.92;;;13.20;99.90;;;;;;4953939;29;20201;-86
2023/09/20 02:59:21;;;;;;;3.67;2.17;;;13.20;99.90;;;;;;4954747;28;20208;-86
2023/09/20 03:01:47;;;;;;;2.50;2.30;;;13.20;99.90;;;;;;4954428;29;20295;-86
2023/09/20 03:04:12;;;;;;;5.28;2.25;;;13.20;99.90;;;;;;4954379;29;20571;-86
2023/09/20 03:06:38;;;;;;;7.57;2.30;;;13.20;99.90;;;;;;4953710;29;20187;-86
2023/09/20 03:09:03;;;;;;;3.00;2.20;;;13.20;99.90;;;;;;4956730;28;20212;-86
2023/09/20 03:11:29;;;;;;;2.53;2.20;;;13.20;99.90;;;;;;4958060;29;20178;-86
2023/09/20 03:13:55;;;;;;;3.45;2.22;;;13.30;99.90;;;;;;4959075;29;20539;-86
2023/09/20 03:16:21;;;;;;;3.45;2.40;;;13.20;99.90;;;;;;4958357;29;20178;-86
2023/09/20 03:18:49;;;;;;;3.00;2.45;;;13.20;99.90;;;;;;4958930;29;20204;-86
2023/09/20 03:21:15;;;;;;;3.83;2.30;;;13.10;99.90;;;;;;4957801;29;20184;-86
2023/09/20 03:23:42;;;;;;;3.55;2.70;;;13.10;99.90;;;;;;4957743;29;20169;-86
2023/09/20 03:26:08;;;;;;;2.50;2.30;;;13.10;99.90;;;;;;4957711;29;20170;-86
2023/09/20 03:28:35;;;;;;;5.38;2.50;;;13.10;99.90;;;;;;4957871;29;20197;-86
2023/09/20 03:31:06;;;;;;;3.40;2.40;;;13.10;99.90;;;;;;4957592;29;20189;-86
2023/09/20 03:33:32;;;;;;;2.53;2.15;;;13.00;99.90;;;;;;4957652;29;20205;-86
2023/09/20 03:36:09;;;;;;;2.38;2.17;;;13.00;99.90;;;;;;4957433;29;20556;-86
2023/09/20 03:38:35;;;;;;;3.97;2.20;;;12.90;99.90;;;;;;4958186;29;20205;-86
2023/09/20 03:41:01;;;;;;;2.50;2.30;;;13.00;99.90;;;;;;4957470;29;20674;-86
2023/09/20 03:43:27;;;;;;;2.47;2.28;;;13.00;99.90;;;;;;4957478;29;20240;-86
2023/09/20 03:45:54;;;;;;;2.83;2.20;;;13.00;99.90;;;;;;4957242;29;20181;-86
2023/09/20 03:48:20;;;;;;;4.00;2.38;;;13.00;99.90;;;;;;4957951;29;20198;-86
2023/09/20 03:50:45;;;;;;;3.47;2.40;;;12.90;99.90;;;;;;4957434;29;20663;-86
2023/09/20 03:53:11;;;;;;;4.13;2.30;;;12.90;99.90;;;;;;4958371;29;20197;-86
2023/09/20 03:55:37;;;;;;;2.47;2.20;;;12.90;99.90;;;;;;4957869;29;20185;-86
2023/09/20 03:58:03;;;;;;;4.40;2.25;;;12.90;99.90;;;;;;4957394;29;20177;-86
2023/09/20 04:00:31;;;;;;;4.60;2.40;;;12.80;99.90;;;;;;4957848;29;20543;-86
2023/09/20 04:02:57;;;;;;;5.45;2.42;;;12.80;99.90;;;;;;4957009;29;20344;-87
2023/09/20 04:05:24;;;;;;;4.15;2.15;;;12.80;99.90;;;;;;4957187;29;20273;-86
2023/09/20 04:07:49;;;;;;;5.07;2.30;;;12.80;99.90;;;;;;4957198;29;20182;-87
2023/09/20 04:10:16;;;;;;;2.40;2.15;;;12.70;99.90;;;;;;4957121;29;20209;-86
2023/09/20 04:12:42;;;;;;;2.35;2.15;;;12.70;99.90;;;;;;4957648;29;20190;-86
2023/09/20 04:15:08;;;;;;;2.80;2.60;;;12.70;99.90;;;;;;4956803;29;20735;-86
2023/09/20 04:17:35;;;;;;;4.78;2.42;;;12.60;99.90;;;;;;4957388;29;20181;-86
2023/09/20 04:20:04;;;;;;;4.50;2.33;;;12.60;99.90;;;;;;4956294;28;20236;-86
2023/09/20 04:22:31;;;;;;;2.83;2.22;;;12.60;99.90;;;;;;4957926;29;20263;-86
2023/09/20 04:24:58;;;;;;;2.88;2.33;;;12.60;99.90;;;;;;4957436;29;20177;-87
2023/09/20 04:27:23;;;;;;;2.67;2.10;;;12.60;99.90;;;;;;4957640;29;20628;-86
2023/09/20 04:29:49;;;;;;;3.05;2.50;;;12.60;99.90;;;;;;4956844;29;20208;-86
2023/09/20 04:32:16;;;;;;;5.10;2.38;;;12.50;99.90;;;;;;4957191;29;20213;-86
2023/09/20 04:34:42;;;;;;;3.88;2.40;;;12.50;99.90;;;;;;4956533;29;20209;-86
2023/09/20 04:37:08;;;;;;;4.00;2.25;;;12.50;99.90;;;;;;4956443;29;20185;-86
2023/09/20 04:39:34;;;;;;;3.95;2.58;;;12.40;99.90;;;;;;4956244;29;20252;-85
2023/09/20 04:41:59;;;;;;;3.90;2.22;;;12.40;99.90;;;;;;4956767;29;20243;-85
2023/09/20 04:44:25;;;;;;;3.45;2.40;;;12.30;99.90;;;;;;4956560;29;20240;-85
2023/09/20 04:46:51;;;;;;;2.65;2.45;;;12.20;99.90;;;;;;4956854;29;20185;-86
2023/09/20 04:49:19;;;;;;;2.80;2.60;;;12.20;99.90;;;;;;4956961;29;20193;-86
2023/09/20 04:51:45;;;;;;;3.17;2.53;;;12.20;99.90;;;;;;4957317;29;20182;-86
2023/09/20 04:54:11;;;;;;;4.60;2.58;;;12.20;99.90;;;;;;4956579;29;20185;-86
2023/09/20 04:56:36;;;;;;;2.40;2.20;;;12.20;99.90;;;;;;4956254;29;20205;-86
2023/09/20 04:59:04;;;;;;;4.22;2.45;;;12.20;99.90;;;;;;4955767;28;20208;-85
2023/09/20 05:01:30;;;;;;;3.20;2.45;;;12.30;99.90;;;;;;4956329;29;20292;-86
2023/09/20 05:03:56;;;;;;;3.35;2.42;;;12.40;99.90;;;;;;4956840;29;20596;-88
2023/09/20 05:06:22;;;;;;;2.65;2.42;;;12.40;99.90;;;;;;4956263;29;20280;-85
2023/09/20 05:08:50;;;;;;;5.15;2.38;;;12.50;99.90;;;;;;4955826;29;20225;-85
2023/09/20 05:11:16;;;;;;;2.33;2.15;;;12.60;99.90;;;;;;4956218;29;20204;-85
2023/09/20 05:13:41;;;;;;;3.72;2.70;;;12.50;99.90;;;;;;4955861;29;20173;-85
2023/09/20 05:16:08;;;;;;;4.30;2.78;;;12.50;99.90;;;;;;4956080;29;20177;-85
2023/09/20 05:18:34;;;;;;;2.58;2.33;;;12.50;99.90;;;;;;4956028;29;20206;-85
2023/09/20 05:21:00;;;;;;;4.50;2.60;;;12.50;99.90;;;;;;4956688;29;20186;-85
2023/09/20 05:23:26;;;;;;;3.45;2.50;;;12.60;99.90;;;;;;4956011;29;20228;-84
2023/09/20 05:25:52;;;;;;;3.75;2.70;;;12.60;99.90;;;;;;4956698;29;20675;-84
2023/09/20 05:28:18;;;;;;;4.93;2.35;;;12.70;99.90;;;;;;4954857;29;20194;-85
2023/09/20 05:30:44;;;;;;;3.75;2.72;;;12.70;99.90;;;;;;4954081;28;20185;-85
2023/09/20 05:33:12;;;;;;;4.93;2.65;;;12.80;99.90;;;;;;4953579;29;20181;-85
2023/09/20 05:35:41;;;;;;;5.85;3.00;;;12.80;99.90;;;;;;4954459;29;20188;-85
2023/09/20 05:38:07;;;;;;;6.68;2.60;;;13.00;99.90;;;;;;4953930;29;20193;-85
2023/09/20 05:40:34;;;;;;;3.90;2.60;;;13.10;99.90;;;;;;4955369;29;20268;-85
2023/09/20 05:43:01;;;;;;;4.25;2.72;;;13.30;99.90;;;;;;4955352;29;20683;-84
2023/09/20 05:45:26;;;;;;;5.90;2.97;;;13.50;99.90;;;;;;4957422;29;20181;-83
2023/09/20 05:47:54;;;;;;;4.55;2.60;;;13.60;99.90;;;;;;4956717;29;20180;-84
2023/09/20 05:50:33;;;;;;;2.50;2.30;;;13.80;99.90;;;;;;4957125;29;20715;-81
2023/09/20 05:53:06;;;;;;;3.08;2.17;;;14.00;99.90;;;;;;4957395;29;20170;-81
2023/09/20 05:55:35;;;;;;;2.85;2.28;;;14.20;99.90;;;;;;4956513;29;20178;-85
2023/09/20 05:58:02;;;;;;;3.72;2.13;;;14.50;99.90;;;;;;4956205;28;20213;-82
2023/09/20 06:00:29;;;;;;;4.90;2.15;;;14.60;99.90;;;;;;4956667;29;20186;-83
2023/09/20 06:02:59;;;;;;;2.45;2.00;;;14.80;99.90;;;;;;4958068;29;20201;-84
2023/09/20 06:05:28;;;;;;;2.33;2.08;;;14.90;99.90;;;;;;4955608;29;20703;-83
2023/09/20 06:07:53;;;;;;;3.33;2.17;;;15.00;99.90;;;;;;4954921;28;20181;-86
2023/09/20 06:10:22;;;;;;;3.13;2.20;;;15.10;99.90;;;;;;4955146;29;20257;-85
2023/09/20 06:12:49;;;;;;;4.07;1.90;;;15.20;99.90;;;;;;4955882;29;20173;-85
2023/09/20 06:15:15;;;;;;;4.35;2.30;;;15.20;99.90;;;;;;4955063;29;20189;-85
2023/09/20 06:17:43;;;;;;;4.05;2.35;;;15.20;99.90;;;;;;4955743;29;20700;-86
2023/09/20 06:20:12;;;;;;;4.90;2.08;;;15.20;99.90;;;;;;4954998;28;20202;-86
2023/09/20 06:22:39;;;;;;;3.25;2.42;;;15.10;99.90;;;;;;4954533;29;20229;-86
2023/09/20 06:25:10;;;;;;;2.60;2.40;;;15.10;99.90;;;;;;4954525;29;20178;-86
2023/09/20 06:27:36;;;;;;;4.72;2.20;;;15.10;99.90;;;;;;4954548;29;20552;-86
2023/09/20 06:30:13;;;;;;;4.95;2.60;;;15.10;99.90;;;;;;4954431;28;20193;-86
2023/09/20 06:32:40;;;;;;;2.35;2.15;;;15.10;99.90;;;;;;4954509;29;20178;-86
2023/09/20 06:35:07;;;;;;;4.50;2.50;;;15.10;99.90;;;;;;4954659;29;20192;-86
2023/09/20 06:37:37;;;;;;;6.45;2.40;;;15.20;99.90;;;;;;4955285;29;20220;-86
2023/09/20 06:40:04;;;;;;;3.50;2.42;;;15.20;99.90;;;;;;4970278;28;20197;-86
2023/09/20 06:42:30;;;;;;;2.67;2.40;;;15.30;99.90;;;;;;4953930;28;20207;-86
2023/09/20 06:44:56;;;;;;;3.97;2.55;;;15.30;99.90;;;;;;4954857;29;20264;-86
2023/09/20 06:47:25;;;;;;;5.70;2.25;;;15.40;99.90;;;;;;4954912;29;20549;-86
2023/09/20 06:49:51;;;;;;;4.20;2.28;;;15.40;99.90;;;;;;4954548;28;20201;-86
2023/09/20 06:52:18;;;;;;;4.30;2.50;;;15.40;99.90;;;;;;4954502;29;20206;-86
2023/09/20 06:54:45;;;;;;;4.93;2.10;;;15.50;99.90;;;;;;4954864;29;20185;-86
2023/09/20 06:57:17;;;;;;;4.35;2.15;;;15.60;99.90;;;;;;4954093;29;20198;-86
2023/09/20 06:59:44;;;;;;;3.22;2.20;;;15.60;99.90;;;;;;4954904;28;20229;-86
2023/09/20 07:02:12;;;;;;;5.15;2.08;;;15.70;99.90;;;;;;4954520;29;20675;-86
2023/09/20 07:04:39;;;;;;;3.25;2.10;;;15.80;99.90;;;;;;4954553;29;20217;-86
2023/09/20 07:07:05;;;;;;;5.53;4.75;;;15.90;99.90;;;;;;4954718;29;20228;-86
2023/09/20 07:09:31;;;;;;;4.05;2.88;;;16.10;99.90;;;;;;4954103;28;20240;-86
2023/09/20 07:12:01;;;;;;;6.35;5.75;;;16.20;99.90;;;;;;4954138;29;20186;-86
2023/09/20 07:14:31;;;;;;;7.80;3.65;;;16.40;99.90;;;;;;4955092;29;20173;-86
2023/09/20 07:16:57;;;;;;;8.60;7.82;;;16.80;99.90;;;;;;4954389;29;20185;-86
2023/09/20 07:19:26;;;;;;;6.90;4.78;;;17.20;99.90;;;;;;4954359;28;20264;-86
2023/09/20 07:21:52;;;;;;;4.82;3.50;;;17.50;99.90;;;;;;4954297;29;20212;-86
2023/09/20 07:24:20;;;;;;;4.90;3.67;;;17.80;99.90;;;;;;4953913;29;20178;-86
2023/09/20 07:26:45;;;;;;;3.78;2.20;;;18.10;99.90;;;;;;4953860;29;20567;-86
2023/09/20 07:29:15;;;;;;;4.53;2.40;;;18.40;99.90;;;;;;4954268;28;20200;-86
2023/09/20 07:31:42;;;;;;;4.35;2.40;;;18.60;99.90;;;;;;4954698;29;20170;-86
2023/09/20 07:34:12;;;;;;;5.68;4.22;;;18.80;99.90;;;;;;4953859;29;20314;-86
2023/09/20 07:36:43;;;;;;;2.60;2.40;;;19.00;99.90;;;;;;4954567;29;20544;-86
2023/09/20 07:39:12;;;;;;;2.50;2.30;;;19.00;99.90;;;;;;4954233;28;20391;-86
2023/09/20 07:41:47;;;;;;;3.70;2.70;;;19.00;99.90;;;;;;4953940;29;20181;-86
2023/09/20 07:44:13;;;;;;;3.70;3.40;;;19.00;99.90;;;;;;4953579;29;20169;-86
2023/09/20 07:46:40;;;;;;;3.38;2.95;;;19.10;99.90;;;;;;4954012;29;20559;-86
2023/09/20 07:49:13;;;;;;;3.67;2.50;;;19.30;99.90;;;;;;4953607;28;20205;-86
2023/09/20 07:51:39;;;;;;;2.70;2.05;;;19.30;99.90;;;;;;4953499;29;20197;-86
2023/09/20 07:54:14;;;;;;;3.03;2.08;;;19.40;99.90;;;;;;4954719;28;20237;-86
2023/09/20 07:56:43;;;;;;;3.30;3.00;;;19.40;99.90;;;;;;4957129;29;20197;-86
2023/09/20 07:59:09;;;;;;;3.13;2.08;;;19.60;99.90;;;;;;4957948;28;20201;-86
2023/09/20 08:01:36;;;;;;;3.03;2.72;;;19.70;99.90;;;;;;4957501;29;20177;-86
2023/09/20 08:04:06;;;;;;;3.70;3.22;;;19.80;99.90;;;;;;4957206;29;20177;-86
2023/09/20 08:06:35;;;;;;;4.68;2.50;;;19.80;99.90;;;;;;4957094;29;20181;-86
2023/09/20 08:09:02;;;;;;;2.67;2.47;;;19.90;99.90;;;;;;4957215;28;20225;-86
2023/09/20 08:11:28;;;;;;;3.42;2.25;;;19.80;99.90;;;;;;4957440;29;20169;-86
2023/09/20 08:13:59;;;;;;;2.65;2.45;;;19.90;99.90;;;;;;4957378;29;20554;-86
2023/09/20 08:16:35;;;;;;;3.65;2.42;;;19.90;99.90;;;;;;4957819;29;20580;-86
2023/09/20 08:21:34;;;;;;;2.78;2.15;;;20.00;99.90;;;;;;4958222;28;20169;-86
2023/09/20 10:54:36;;;;;;;;;;;;;;;;;;;;;
2023/09/20 10:57:39;;;;;;;4.35;2.05;;;22.80;95.40;;;;;;4908938;29;20191;-74
2023/09/20 11:01:12;;;;;;;4.15;2.20;;;23.20;94.70;;;;;;4895561;29;20198;-74
2023/09/20 11:12:14;;;;;;;;;;;;;;;;;;;;;
2023/09/20 11:26:54;;;;;;;2.35;2.08;;;24.20;91.20;;;;;;4896332;29;20263;-74
2023/09/20 11:30:16;;;;;;;3.53;2.00;;;24.20;91.50;;;;;;4919062;29;20285;-74
2023/09/20 11:33:38;;;;;;;;;;;;;;;;;;;;;
2023/09/20 11:36:28;;;;;;;3.22;2.28;;;24.50;91.10;;;;;;4849989;29;20193;-74
2023/09/20 11:39:30;;;;;;;4.32;2.10;;;24.50;90.60;;;;;;4908017;29;20616;-74
2023/09/20 11:46:33;;;;;;;10.77;1.98;;;24.30;91.20;;;;;;4861497;29;20279;-75
2023/09/20 11:49:35;;;;;;;6.53;2.10;;;24.10;91.30;;;;;;4819589;29;20190;-74
2023/09/20 11:54:34;;;;;;;19.58;2.65;;;24.10;90.80;;;;;;5014024;28;20223;-78
2023/09/20 11:57:02;;;;;;;2.67;2.08;;;24.10;90.90;;;;;;5016759;28;20167;-74
2023/09/20 11:59:28;;;;;;;5.18;2.03;;;24.20;91.30;;;;;;5016372;28;20252;-74
2023/09/20 12:01:54;;;;;;;3.83;2.10;;;24.40;90.70;;;;;;5012273;28;20295;-74
2023/09/20 12:04:20;;;;;;;2.30;1.90;;;24.60;90.60;;;;;;4996057;28;20169;-74
2023/09/20 12:06:46;;;;;;;2.00;1.60;;;24.60;90.00;;;;;;4996924;28;20175;-74
2023/09/20 12:09:12;;;;;;;3.78;1.73;;;24.50;89.60;;;;;;4996939;28;20176;-74
2023/09/20 12:11:38;;;;;;;2.40;2.15;;;24.50;89.70;;;;;;4996803;28;20165;-74
2023/09/20 12:14:04;;;;;;;4.07;2.13;;;24.50;88.10;;;;;;4995962;28;20183;-74
2023/09/20 12:16:30;;;;;;;3.45;1.90;;;24.60;88.50;;;;;;4995652;28;20251;-74
2023/09/20 12:18:55;;;;;;;2.05;1.83;;;24.60;87.60;;;;;;4996693;28;20172;-74
2023/09/20 12:21:22;;;;;;;3.22;1.90;;;24.60;88.20;;;;;;4995587;28;20180;-74
2023/09/20 12:23:49;;;;;;;3.67;1.90;;;24.60;88.40;;;;;;4995611;28;20208;-74
2023/09/20 12:26:16;;;;;;;2.53;1.67;;;24.50;88.60;;;;;;4995788;28;20181;-74
2023/09/20 12:28:43;;;;;;;6.15;2.08;;;24.40;86.80;;;;;;4995424;28;20180;-74
2023/09/20 12:31:09;;;;;;;3.35;2.20;;;24.40;88.10;;;;;;4996185;28;20203;-75
2023/09/20 12:37:56;;;;;;;3.28;1.90;;;24.30;86.60;;;;;;4956136;29;20268;-75
2023/09/20 12:43:42;;;;;;;8.02;2.10;;;23.90;89.80;;;;;;4997586;23;20247;-84
2023/09/20 12:46:09;;;;;;;4.30;1.85;;;23.80;90.30;;;;;;4979019;28;20180;-84
2023/09/20 12:48:36;;;;;;;2.78;2.13;;;23.70;89.40;;;;;;4978669;28;20168;-84
2023/09/20 12:51:04;;;;;;;2.20;1.80;;;23.70;88.80;;;;;;4979479;28;20196;-84
2023/09/20 12:53:33;;;;;;;2.03;1.77;;;23.60;89.10;;;;;;4978889;28;20212;-84
2023/09/20 12:56:00;;;;;;;2.60;1.63;;;23.60;89.30;;;;;;4978366;28;20184;-84
2023/09/20 12:58:26;;;;;;;4.85;1.95;;;23.70;89.70;;;;;;4979732;28;20546;-84
2023/09/20 13:00:52;;;;;;;3.67;2.00;;;23.70;88.70;;;;;;4978680;28;20239;-84
2023/09/20 13:03:18;;;;;;;2.33;2.00;;;23.70;89.80;;;;;;4996106;28;20220;-85
2023/09/20 13:05:45;;;;;;;7.00;1.92;;;23.80;89.00;;;;;;4978800;28;20176;-84
2023/09/20 13:08:13;;;;;;;2.03;1.80;;;23.80;87.90;;;;;;4978716;28;20180;-84
2023/09/20 13:10:43;;;;;;;1.90;1.80;;;23.90;88.40;;;;;;4978518;28;20212;-84
2023/09/20 13:13:10;;;;;;;2.00;1.85;;;23.90;89.40;;;;;;4980463;28;20200;-85
2023/09/20 13:15:41;;;;;;;4.47;1.80;;;23.80;87.50;;;;;;4979139;28;20234;-84
2023/09/20 13:18:09;;;;;;;2.53;2.00;;;23.70;88.20;;;;;;4981357;28;20168;-84
2023/09/20 13:20:37;;;;;;;3.50;1.90;;;23.70;89.00;;;;;;4979044;28;20527;-85
2023/09/20 13:23:03;;;;;;;3.03;1.98;;;23.70;88.50;;;;;;4978314;28;20219;-84
2023/09/20 13:25:32;;;;;;;4.13;2.10;;;23.70;88.60;;;;;;4979158;28;20188;-91
2023/09/20 13:27:57;;;;;;;4.35;2.00;;;23.70;86.00;;;;;;4978337;28;20172;-86
2023/09/20 13:30:23;;;;;;;2.47;1.90;;;23.70;84.90;;;;;;4978408;28;20180;-85
2023/09/20 13:32:49;;;;;;;2.17;1.70;;;23.70;85.40;;;;;;4977981;28;20200;-84
2023/09/20 13:35:16;;;;;;;5.65;2.20;;;23.70;86.00;;;;;;4977996;28;20203;-84
2023/09/20 13:37:45;;;;;;;3.28;1.83;;;23.60;85.10;;;;;;4978373;28;20215;-84
2023/09/20 13:40:15;;;;;;;2.28;1.88;;;23.60;84.30;;;;;;4977890;28;20589;-85
2023/09/20 13:42:42;;;;;;;2.47;1.85;;;23.50;83.00;;;;;;4978181;28;20299;-85
2023/09/20 13:45:13;;;;;;;3.05;1.95;;;23.50;83.90;;;;;;4978152;28;20543;-85
2023/09/20 13:47:42;;;;;;;2.30;1.90;;;23.60;84.50;;;;;;4978833;28;20210;-84
2023/09/20 13:50:09;;;;;;;4.30;1.83;;;23.60;84.20;;;;;;4977722;28;20181;-85
2023/09/20 13:52:35;;;;;;;2.72;1.90;;;23.60;83.90;;;;;;4977675;28;20204;-84
2023/09/20 13:55:05;;;;;;;3.50;2.00;;;23.60;85.90;;;;;;4978252;28;20293;-84
2023/09/20 13:57:33;;;;;;;3.80;2.05;;;23.60;86.50;;;;;;4971968;28;20551;-83
2023/09/20 14:00:09;;;;;;;6.63;2.00;;;23.50;86.10;;;;;;4971718;28;20622;-83
2023/09/20 14:02:44;;;;;;;3.00;1.77;;;23.50;85.90;;;;;;4971074;28;20223;-83
2023/09/20 14:08:22;;;;;;;2.67;2.10;;;23.30;86.60;;;;;;4996101;28;20212;-83
2023/09/20 14:10:48;;;;;;;4.10;2.10;;;23.30;86.80;;;;;;4978096;28;20605;-83
2023/09/20 14:13:14;;;;;;;2.83;2.25;;;23.30;87.40;;;;;;4978469;28;20250;-83
2023/09/20 14:15:40;;;;;;;4.72;2.00;;;23.30;87.80;;;;;;4977810;28;20234;-84
2023/09/20 14:18:08;;;;;;;5.47;2.38;;;23.20;87.80;;;;;;4977370;28;20200;-84
2023/09/20 14:20:33;;;;;;;3.65;2.00;;;23.20;86.90;;;;;;4977301;28;20270;-84
2023/09/20 14:23:03;;;;;;;2.42;2.13;;;23.20;87.10;;;;;;4975191;28;20353;-85
2023/09/20 14:25:30;;;;;;;4.07;2.15;;;23.10;87.60;;;;;;4976611;28;20230;-84
2023/09/20 14:28:00;;;;;;;3.75;2.20;;;23.10;87.30;;;;;;4976724;28;20192;-84
2023/09/20 14:30:28;;;;;;;2.42;2.05;;;22.90;88.10;;;;;;4977385;28;20184;-84
2023/09/20 14:33:02;;;;;;;2.92;2.00;;;22.80;87.80;;;;;;4976464;28;20267;-84
2023/09/20 14:35:34;;;;;;;2.42;2.08;;;22.80;88.30;;;;;;4978072;28;20619;-84
2023/09/20 14:38:03;;;;;;;2.65;2.20;;;22.70;88.40;;;;;;4977053;28;20172;-85
2023/09/20 14:40:32;;;;;;;4.20;2.22;;;22.80;88.50;;;;;;4977189;28;20274;-85
2023/09/20 14:43:02;;;;;;;5.32;2.00;;;22.70;89.20;;;;;;4980148;28;20243;-84
2023/09/20 14:45:34;;;;;;;3.95;2.50;;;22.70;90.00;;;;;;4971534;28;20206;-84
2023/09/20 14:48:03;;;;;;;5.45;2.45;;;22.70;90.10;;;;;;4974868;28;20191;-84
2023/09/20 14:50:33;;;;;;;2.35;1.95;;;22.70;89.70;;;;;;4976618;28;20184;-84
2023/09/20 14:52:59;;;;;;;3.05;2.35;;;22.60;90.40;;;;;;4975049;28;20200;-84
2023/09/20 14:55:28;;;;;;;3.20;2.00;;;22.60;90.40;;;;;;4974844;28;20180;-84
2023/09/20 14:57:57;;;;;;;2.33;2.03;;;22.50;90.00;;;;;;4974633;28;20184;-84
2023/09/20 15:00:33;;;;;;;2.38;2.15;;;22.50;90.80;;;;;;4974908;28;20183;-84
2023/09/20 15:03:04;;;;;;;2.47;2.28;;;22.40;90.40;;;;;;4974442;28;20216;-84
2023/09/20 15:05:41;;;;;;;4.03;2.30;;;22.40;85.50;;;;;;4974320;28;20161;-84
2023/09/20 15:08:10;;;;;;;2.88;2.45;;;22.40;86.40;;;;;;4975441;28;20164;-84
2023/09/20 15:10:40;;;;;;;6.15;2.53;;;22.40;87.00;;;;;;4976687;28;20251;-84
2023/09/20 15:13:12;;;;;;;2.58;2.38;;;22.40;87.10;;;;;;4977127;28;20223;-84
2023/09/20 15:15:40;;;;;;;4.40;2.50;;;22.40;87.40;;;;;;4976602;28;20207;-84
2023/09/20 15:18:09;;;;;;;3.83;2.25;;;22.30;85.40;;;;;;4976918;28;20530;-84
2023/09/20 15:20:47;;;;;;;3.85;2.53;;;22.30;85.40;;;;;;4976730;28;20179;-84
2023/09/20 15:23:13;;;;;;;2.70;2.40;;;22.20;86.50;;;;;;4976183;28;20299;-84
2023/09/20 15:25:44;;;;;;;2.22;1.95;;;22.20;86.10;;;;;;4976483;28;20214;-84
2023/09/20 15:28:10;;;;;;;4.40;2.60;;;22.10;86.30;;;;;;4976080;28;20267;-84
2023/09/20 15:30:58;;;;;;;2.75;2.55;;;22.00;84.70;;;;;;4976537;28;20237;-84
2023/09/20 15:33:27;;;;;;;3.45;2.50;;;22.00;85.00;;;;;;4976548;28;20247;-84
2023/09/20 15:36:05;;;;;;;3.10;2.80;;;21.90;85.20;;;;;;4976051;28;20203;-84
2023/09/20 15:38:39;;;;;;;6.65;2.90;;;21.80;84.60;;;;;;4977771;28;20180;-84
2023/09/20 15:41:11;;;;;;;5.07;2.90;;;21.80;84.20;;;;;;4976958;28;20201;-84
2023/09/20 15:43:43;;;;;;;7.00;2.90;;;21.80;84.40;;;;;;4976358;28;20216;-84
2023/09/20 15:46:11;;;;;;;4.32;2.40;;;21.70;84.00;;;;;;4976006;28;20169;-84
2023/09/20 15:48:37;;;;;;;5.70;2.60;;;21.70;83.60;;;;;;4976527;28;20192;-84
2023/09/20 15:51:06;;;;;;;7.97;2.72;;;21.70;84.60;;;;;;4977068;28;20195;-84
2023/09/20 15:53:32;;;;;;;2.75;2.55;;;21.60;85.30;;;;;;4977140;28;20204;-84
2023/09/20 15:56:08;;;;;;;3.17;2.47;;;21.50;86.20;;;;;;4977756;28;20176;-84
2023/09/20 15:58:36;;;;;;;4.47;2.45;;;21.40;85.20;;;;;;4976596;28;20524;-84
2023/09/20 16:01:05;;;;;;;2.80;2.40;;;21.30;86.40;;;;;;4976195;28;20176;-85
2023/09/20 16:03:34;;;;;;;5.88;2.90;;;21.30;88.10;;;;;;4976303;28;20216;-84
2023/09/20 16:06:06;;;;;;;5.53;2.58;;;21.20;88.40;;;;;;4976436;28;20179;-85
2023/09/20 16:08:35;;;;;;;4.40;2.80;;;21.10;89.40;;;;;;4974091;28;20181;-86
2023/09/20 16:11:04;;;;;;;3.40;2.90;;;21.00;89.80;;;;;;4969397;28;20270;-86
2023/09/20 16:13:36;;;;;;;8.30;2.83;;;20.90;90.20;;;;;;4974666;28;20210;-85
2023/09/20 16:18:55;;;;;;;5.97;2.72;;;20.70;90.60;;;;;;5010671;28;20224;-75
2023/09/20 16:21:20;;;;;;;5.85;3.08;;;20.50;91.00;;;;;;4998389;28;20219;-75
2023/09/20 16:23:48;;;;;;;4.47;2.80;;;20.50;91.40;;;;;;4995510;28;20294;-75
2023/09/20 16:26:16;;;;;;;4.93;2.63;;;20.40;91.70;;;;;;4992231;28;20201;-75
2023/09/20 16:28:42;;;;;;;6.55;2.90;;;20.30;91.80;;;;;;4976446;28;20199;-75
2023/09/20 16:31:07;;;;;;;6.05;2.70;;;20.30;91.90;;;;;;4976003;28;20649;-75
2023/09/20 16:33:33;;;;;;;5.47;2.70;;;20.20;92.00;;;;;;4976198;28;20276;-75
2023/09/20 16:35:58;;;;;;;6.97;3.00;;;20.20;92.20;;;;;;4976237;28;20236;-75
2023/09/20 16:39:08;;;;;;;3.83;2.78;;;20.10;92.20;;;;;;4977004;28;20196;-75
2023/09/20 16:41:35;;;;;;;3.70;3.33;;;20.00;92.60;;;;;;4976861;28;20223;-75
2023/09/20 16:44:01;;;;;;;7.03;2.80;;;19.80;93.10;;;;;;4976891;28;20200;-75
2023/09/20 16:46:29;;;;;;;3.78;2.92;;;19.70;93.30;;;;;;4975929;28;20208;-75
2023/09/20 16:48:56;;;;;;;5.70;2.95;;;19.60;93.70;;;;;;4975706;28;20228;-75
2023/09/20 16:51:21;;;;;;;3.50;3.00;;;19.50;94.10;;;;;;4977018;28;20176;-75
2023/09/20 16:53:47;;;;;;;4.72;2.97;;;19.50;94.20;;;;;;4975617;28;20177;-75
2023/09/20 16:56:15;;;;;;;4.10;3.15;;;19.30;94.40;;;;;;4979506;28;20251;-75
2023/09/20 16:58:41;;;;;;;6.93;3.15;;;19.30;94.70;;;;;;4994871;28;20206;-75
2023/09/20 17:01:17;;;;;;;4.95;2.63;;;19.20;94.80;;;;;;4994849;28;20184;-75
2023/09/20 17:03:43;;;;;;;7.00;3.00;;;19.10;95.50;;;;;;4995945;28;20291;-75
2023/09/20 17:06:09;;;;;;;3.97;2.90;;;19.00;95.20;;;;;;4994804;28;20291;-75